sensor_id;sensor_type;location;lat;lon;timestamp;P1;durP1;ratioP1;P2;durP2;ratioP2
71368;SDS011;59175;53.214;5.728;2023-04-01T00:00:18;3.03;;;0.63;;
71368;SDS011;59175;53.214;5.728;2023-04-01T00:02:44;5.70;;;1.17;;
71368;SDS011;59175;53.214;5.728;2023-04-01T00:05:10;2.88;;;0.55;;
71368;SDS011;59175;53.214;5.728;2023-04-01T00:07:36;4.30;;;1.02;;
71368;SDS011;59175;53.214;5.728;2023-04-01T00:10:01;3.05;;;0.70;;
71368;SDS011;59175;53.214;5.728;2023-04-01T00:12:26;2.83;;;1.00;;
71368;SDS011;59175;53.214;5.728;2023-04-01T00:14:51;4.37;;;1.20;;
71368;SDS011;59175;53.214;5.728;2023-04-01T00:17:17;3.83;;;1.03;;
71368;SDS011;59175;53.214;5.728;2023-04-01T00:19:42;5.43;;;1.20;;
71368;SDS011;59175;53.214;5.728;2023-04-01T00:22:07;5.33;;;1.30;;
71368;SDS011;59175;53.214;5.728;2023-04-01T00:24:36;4.55;;;1.15;;
71368;SDS011;59175;53.214;5.728;2023-04-01T00:27:01;6.50;;;1.90;;
71368;SDS011;59175;53.214;5.728;2023-04-01T00:29:26;4.47;;;0.90;;
71368;SDS011;59175;53.214;5.728;2023-04-01T00:31:54;6.07;;;1.43;;
71368;SDS011;59175;53.214;5.728;2023-04-01T00:34:19;4.28;;;1.25;;
71368;SDS011;59175;53.214;5.728;2023-04-01T00:36:45;6.20;;;1.63;;
71368;SDS011;59175;53.214;5.728;2023-04-01T00:39:10;4.80;;;1.77;;
71368;SDS011;59175;53.214;5.728;2023-04-01T00:41:35;6.20;;;1.40;;
71368;SDS011;59175;53.214;5.728;2023-04-01T00:44:21;4.70;;;1.50;;
71368;SDS011;59175;53.214;5.728;2023-04-01T00:46:46;4.82;;;1.48;;
71368;SDS011;59175;53.214;5.728;2023-04-01T00:49:12;5.07;;;1.50;;
71368;SDS011;59175;53.214;5.728;2023-04-01T00:51:37;4.57;;;1.27;;
71368;SDS011;59175;53.214;5.728;2023-04-01T00:54:03;4.10;;;1.43;;
71368;SDS011;59175;53.214;5.728;2023-04-01T00:56:32;6.82;;;1.30;;
71368;SDS011;59175;53.214;5.728;2023-04-01T00:59:06;3.15;;;0.90;;
71368;SDS011;59175;53.214;5.728;2023-04-01T01:01:33;5.00;;;1.60;;
71368;SDS011;59175;53.214;5.728;2023-04-01T01:03:59;5.80;;;1.90;;
71368;SDS011;59175;53.214;5.728;2023-04-01T01:07:01;7.07;;;1.23;;
71368;SDS011;59175;53.214;5.728;2023-04-01T01:11:47;7.00;;;1.97;;
71368;SDS011;59175;53.214;5.728;2023-04-01T01:16:45;3.90;;;1.33;;
71368;SDS011;59175;53.214;5.728;2023-04-01T01:21:50;4.23;;;1.07;;
71368;SDS011;59175;53.214;5.728;2023-04-01T01:27:04;5.20;;;1.60;;
71368;SDS011;59175;53.214;5.728;2023-04-01T01:29:42;5.00;;;1.45;;
71368;SDS011;59175;53.214;5.728;2023-04-01T01:35:19;4.57;;;1.60;;
71368;SDS011;59175;53.214;5.728;2023-04-01T01:37:45;6.70;;;1.67;;
71368;SDS011;59175;53.214;5.728;2023-04-01T01:40:11;3.90;;;0.73;;
71368;SDS011;59175;53.214;5.728;2023-04-01T01:42:39;8.10;;;1.77;;
71368;SDS011;59175;53.214;5.728;2023-04-01T01:45:05;4.30;;;0.90;;
71368;SDS011;59175;53.214;5.728;2023-04-01T01:47:31;4.78;;;1.25;;
71368;SDS011;59175;53.214;5.728;2023-04-01T01:49:57;7.32;;;1.20;;
71368;SDS011;59175;53.214;5.728;2023-04-01T01:52:23;5.47;;;1.27;;
71368;SDS011;59175;53.214;5.728;2023-04-01T01:54:52;5.20;;;1.38;;
71368;SDS011;59175;53.214;5.728;2023-04-01T01:57:19;9.80;;;1.80;;
71368;SDS011;59175;53.214;5.728;2023-04-01T01:59:45;4.63;;;1.80;;
71368;SDS011;59175;53.214;5.728;2023-04-01T02:02:12;6.30;;;2.22;;
71368;SDS011;59175;53.214;5.728;2023-04-01T02:04:38;5.70;;;1.47;;
71368;SDS011;59175;53.214;5.728;2023-04-01T02:07:08;4.88;;;1.33;;
71368;SDS011;59175;53.214;5.728;2023-04-01T02:09:36;6.60;;;1.40;;
71368;SDS011;59175;53.214;5.728;2023-04-01T02:12:03;5.83;;;1.50;;
71368;SDS011;59175;53.214;5.728;2023-04-01T02:17:07;4.35;;;1.75;;
71368;SDS011;59175;53.214;5.728;2023-04-01T02:19:38;4.70;;;1.25;;
71368;SDS011;59175;53.214;5.728;2023-04-01T02:22:04;9.13;;;1.80;;
71368;SDS011;59175;53.214;5.728;2023-04-01T02:24:31;10.20;;;2.23;;
71368;SDS011;59175;53.214;5.728;2023-04-01T02:26:57;5.78;;;1.40;;
71368;SDS011;59175;53.214;5.728;2023-04-01T02:29:23;6.27;;;2.23;;
71368;SDS011;59175;53.214;5.728;2023-04-01T02:31:50;7.47;;;1.50;;
71368;SDS011;59175;53.214;5.728;2023-04-01T02:34:16;5.78;;;1.45;;
71368;SDS011;59175;53.214;5.728;2023-04-01T02:36:41;5.20;;;1.67;;
71368;SDS011;59175;53.214;5.728;2023-04-01T02:39:07;7.20;;;2.33;;
71368;SDS011;59175;53.214;5.728;2023-04-01T02:41:38;5.50;;;1.48;;
71368;SDS011;59175;53.214;5.728;2023-04-01T02:44:03;8.27;;;2.35;;
71368;SDS011;59175;53.214;5.728;2023-04-01T02:46:28;8.87;;;2.67;;
71368;SDS011;59175;53.214;5.728;2023-04-01T02:48:53;5.70;;;1.07;;
71368;SDS011;59175;53.214;5.728;2023-04-01T02:51:19;6.03;;;2.10;;
71368;SDS011;59175;53.214;5.728;2023-04-01T02:53:44;6.10;;;2.03;;
71368;SDS011;59175;53.214;5.728;2023-04-01T02:56:09;6.53;;;1.57;;
71368;SDS011;59175;53.214;5.728;2023-04-01T02:58:35;7.25;;;2.45;;
71368;SDS011;59175;53.214;5.728;2023-04-01T03:01:00;6.73;;;2.17;;
71368;SDS011;59175;53.214;5.728;2023-04-01T03:03:25;3.73;;;1.20;;
71368;SDS011;59175;53.214;5.728;2023-04-01T03:05:51;5.20;;;1.90;;
71368;SDS011;59175;53.214;5.728;2023-04-01T03:08:16;3.40;;;1.13;;
71368;SDS011;59175;53.214;5.728;2023-04-01T03:10:41;6.77;;;2.17;;
71368;SDS011;59175;53.214;5.728;2023-04-01T03:13:06;5.90;;;2.20;;
71368;SDS011;59175;53.214;5.728;2023-04-01T03:15:31;8.53;;;1.87;;
71368;SDS011;59175;53.214;5.728;2023-04-01T03:17:57;4.73;;;1.40;;
71368;SDS011;59175;53.214;5.728;2023-04-01T03:20:22;7.03;;;1.93;;
71368;SDS011;59175;53.214;5.728;2023-04-01T03:22:47;5.80;;;1.40;;
71368;SDS011;59175;53.214;5.728;2023-04-01T03:25:12;5.40;;;1.80;;
71368;SDS011;59175;53.214;5.728;2023-04-01T03:27:38;5.97;;;2.13;;
71368;SDS011;59175;53.214;5.728;2023-04-01T03:30:03;5.40;;;1.57;;
71368;SDS011;59175;53.214;5.728;2023-04-01T03:32:29;6.05;;;1.75;;
71368;SDS011;59175;53.214;5.728;2023-04-01T03:34:55;4.00;;;1.03;;
71368;SDS011;59175;53.214;5.728;2023-04-01T03:37:20;6.90;;;2.77;;
71368;SDS011;59175;53.214;5.728;2023-04-01T03:39:45;5.93;;;1.43;;
71368;SDS011;59175;53.214;5.728;2023-04-01T03:42:11;5.67;;;1.50;;
71368;SDS011;59175;53.214;5.728;2023-04-01T03:44:36;6.20;;;2.10;;
71368;SDS011;59175;53.214;5.728;2023-04-01T03:47:01;4.73;;;1.30;;
71368;SDS011;59175;53.214;5.728;2023-04-01T03:49:27;5.63;;;2.00;;
71368;SDS011;59175;53.214;5.728;2023-04-01T03:51:52;6.93;;;2.23;;
71368;SDS011;59175;53.214;5.728;2023-04-01T03:54:18;3.23;;;1.37;;
71368;SDS011;59175;53.214;5.728;2023-04-01T03:56:45;5.97;;;1.77;;
71368;SDS011;59175;53.214;5.728;2023-04-01T03:59:10;5.73;;;1.37;;
71368;SDS011;59175;53.214;5.728;2023-04-01T04:01:36;5.53;;;1.80;;
71368;SDS011;59175;53.214;5.728;2023-04-01T04:04:01;5.40;;;1.33;;
71368;SDS011;59175;53.214;5.728;2023-04-01T04:06:27;9.67;;;1.63;;
71368;SDS011;59175;53.214;5.728;2023-04-01T04:08:52;5.43;;;1.63;;
71368;SDS011;59175;53.214;5.728;2023-04-01T04:11:18;5.87;;;2.00;;
71368;SDS011;59175;53.214;5.728;2023-04-01T04:13:43;4.85;;;1.83;;
71368;SDS011;59175;53.214;5.728;2023-04-01T04:16:08;6.77;;;2.17;;
71368;SDS011;59175;53.214;5.728;2023-04-01T04:18:34;5.80;;;2.33;;
71368;SDS011;59175;53.214;5.728;2023-04-01T04:21:00;5.63;;;1.80;;
71368;SDS011;59175;53.214;5.728;2023-04-01T04:23:25;8.77;;;2.47;;
71368;SDS011;59175;53.214;5.728;2023-04-01T04:25:54;6.30;;;2.00;;
71368;SDS011;59175;53.214;5.728;2023-04-01T04:28:19;7.35;;;1.70;;
71368;SDS011;59175;53.214;5.728;2023-04-01T04:30:46;7.00;;;2.40;;
71368;SDS011;59175;53.214;5.728;2023-04-01T04:33:11;8.27;;;2.60;;
71368;SDS011;59175;53.214;5.728;2023-04-01T04:35:36;7.57;;;2.47;;
71368;SDS011;59175;53.214;5.728;2023-04-01T04:38:01;8.20;;;2.13;;
71368;SDS011;59175;53.214;5.728;2023-04-01T04:40:26;6.90;;;2.17;;
71368;SDS011;59175;53.214;5.728;2023-04-01T04:42:52;4.87;;;1.47;;
71368;SDS011;59175;53.214;5.728;2023-04-01T04:45:17;7.87;;;2.50;;
71368;SDS011;59175;53.214;5.728;2023-04-01T04:47:42;6.60;;;2.67;;
71368;SDS011;59175;53.214;5.728;2023-04-01T04:50:08;8.33;;;2.10;;
71368;SDS011;59175;53.214;5.728;2023-04-01T04:52:33;7.90;;;3.13;;
71368;SDS011;59175;53.214;5.728;2023-04-01T04:54:58;9.40;;;3.03;;
71368;SDS011;59175;53.214;5.728;2023-04-01T04:57:23;7.80;;;2.83;;
71368;SDS011;59175;53.214;5.728;2023-04-01T04:59:49;7.67;;;3.30;;
71368;SDS011;59175;53.214;5.728;2023-04-01T05:02:14;5.93;;;2.53;;
71368;SDS011;59175;53.214;5.728;2023-04-01T05:04:39;6.07;;;1.20;;
71368;SDS011;59175;53.214;5.728;2023-04-01T05:07:05;7.17;;;2.27;;
71368;SDS011;59175;53.214;5.728;2023-04-01T05:09:30;6.23;;;1.43;;
71368;SDS011;59175;53.214;5.728;2023-04-01T05:11:56;7.23;;;2.63;;
71368;SDS011;59175;53.214;5.728;2023-04-01T05:14:21;7.37;;;2.23;;
71368;SDS011;59175;53.214;5.728;2023-04-01T05:16:46;9.53;;;2.83;;
71368;SDS011;59175;53.214;5.728;2023-04-01T05:19:11;7.20;;;2.07;;
71368;SDS011;59175;53.214;5.728;2023-04-01T05:21:36;9.13;;;2.17;;
71368;SDS011;59175;53.214;5.728;2023-04-01T05:24:02;5.97;;;2.10;;
71368;SDS011;59175;53.214;5.728;2023-04-01T05:26:27;8.63;;;2.23;;
71368;SDS011;59175;53.214;5.728;2023-04-01T05:28:52;6.40;;;2.90;;
71368;SDS011;59175;53.214;5.728;2023-04-01T05:31:17;4.70;;;1.97;;
71368;SDS011;59175;53.214;5.728;2023-04-01T05:33:43;7.17;;;2.90;;
71368;SDS011;59175;53.214;5.728;2023-04-01T05:36:12;10.33;;;3.00;;
71368;SDS011;59175;53.214;5.728;2023-04-01T05:38:37;11.23;;;2.53;;
71368;SDS011;59175;53.214;5.728;2023-04-01T05:41:02;8.10;;;2.73;;
71368;SDS011;59175;53.214;5.728;2023-04-01T05:43:28;11.00;;;3.33;;
71368;SDS011;59175;53.214;5.728;2023-04-01T05:45:54;8.35;;;2.65;;
71368;SDS011;59175;53.214;5.728;2023-04-01T05:48:20;14.40;;;3.87;;
71368;SDS011;59175;53.214;5.728;2023-04-01T05:50:45;9.63;;;2.90;;
71368;SDS011;59175;53.214;5.728;2023-04-01T05:53:10;9.37;;;3.77;;
71368;SDS011;59175;53.214;5.728;2023-04-01T05:55:35;8.63;;;2.80;;
71368;SDS011;59175;53.214;5.728;2023-04-01T05:58:01;5.90;;;2.47;;
71368;SDS011;59175;53.214;5.728;2023-04-01T06:00:26;10.47;;;2.93;;
71368;SDS011;59175;53.214;5.728;2023-04-01T06:02:51;10.30;;;3.07;;
71368;SDS011;59175;53.214;5.728;2023-04-01T06:05:21;7.53;;;2.38;;
71368;SDS011;59175;53.214;5.728;2023-04-01T06:07:47;8.85;;;3.38;;
71368;SDS011;59175;53.214;5.728;2023-04-01T06:10:17;9.17;;;3.50;;
71368;SDS011;59175;53.214;5.728;2023-04-01T06:15:19;5.55;;;2.28;;
71368;SDS011;59175;53.214;5.728;2023-04-01T06:20:36;8.32;;;2.55;;
71368;SDS011;59175;53.214;5.728;2023-04-01T06:36:21;7.10;;;1.80;;
71368;SDS011;59175;53.214;5.728;2023-04-01T06:38:56;12.27;;;2.07;;
71368;SDS011;59175;53.214;5.728;2023-04-01T06:46:46;6.10;;;2.17;;
71368;SDS011;59175;53.214;5.728;2023-04-01T06:51:55;5.73;;;1.43;;
71368;SDS011;59175;53.214;5.728;2023-04-01T06:54:42;9.75;;;3.10;;
71368;SDS011;59175;53.214;5.728;2023-04-01T06:59:43;7.28;;;2.40;;
71368;SDS011;59175;53.214;5.728;2023-04-01T07:04:40;11.10;;;2.85;;
71368;SDS011;59175;53.214;5.728;2023-04-01T07:07:25;8.02;;;2.78;;
71368;SDS011;59175;53.214;5.728;2023-04-01T07:09:52;12.53;;;2.83;;
71368;SDS011;59175;53.214;5.728;2023-04-01T07:12:26;9.32;;;2.45;;
71368;SDS011;59175;53.214;5.728;2023-04-01T07:14:53;10.32;;;2.47;;
71368;SDS011;59175;53.214;5.728;2023-04-01T07:17:20;7.88;;;2.85;;
71368;SDS011;59175;53.214;5.728;2023-04-01T07:24:55;10.50;;;3.10;;
71368;SDS011;59175;53.214;5.728;2023-04-01T07:27:23;12.30;;;4.50;;
71368;SDS011;59175;53.214;5.728;2023-04-01T07:29:48;14.30;;;3.97;;
71368;SDS011;59175;53.214;5.728;2023-04-01T07:34:50;12.15;;;5.45;;
71368;SDS011;59175;53.214;5.728;2023-04-01T07:37:39;12.77;;;3.53;;
71368;SDS011;59175;53.214;5.728;2023-04-01T07:45:16;4.77;;;1.20;;
71368;SDS011;59175;53.214;5.728;2023-04-01T07:55:15;13.33;;;4.43;;
71368;SDS011;59175;53.214;5.728;2023-04-01T08:10:21;15.43;;;3.58;;
71368;SDS011;59175;53.214;5.728;2023-04-01T08:15:37;9.40;;;2.58;;
71368;SDS011;59175;53.214;5.728;2023-04-01T08:20:57;7.28;;;2.55;;
71368;SDS011;59175;53.214;5.728;2023-04-01T08:23:27;6.82;;;2.80;;
71368;SDS011;59175;53.214;5.728;2023-04-01T08:30:58;6.00;;;2.30;;
71368;SDS011;59175;53.214;5.728;2023-04-01T08:33:28;4.10;;;0.90;;
71368;SDS011;59175;53.214;5.728;2023-04-01T08:38:42;3.87;;;0.50;;
71368;SDS011;59175;53.214;5.728;2023-04-01T08:48:38;4.47;;;0.73;;
71368;SDS011;59175;53.214;5.728;2023-04-01T08:56:18;2.70;;;0.40;;
71368;SDS011;59175;53.214;5.728;2023-04-01T08:58:58;6.13;;;0.82;;
71368;SDS011;59175;53.214;5.728;2023-04-01T09:01:43;2.63;;;0.43;;
71368;SDS011;59175;53.214;5.728;2023-04-01T09:19:27;3.78;;;1.38;;
71368;SDS011;59175;53.214;5.728;2023-04-01T09:40:17;3.72;;;0.60;;
71368;SDS011;59175;53.214;5.728;2023-04-01T09:42:44;2.87;;;1.17;;
71368;SDS011;59175;53.214;5.728;2023-04-01T09:45:23;3.20;;;0.30;;
71368;SDS011;59175;53.214;5.728;2023-04-01T09:58:00;3.75;;;1.77;;
71368;SDS011;59175;53.214;5.728;2023-04-01T10:00:38;4.78;;;0.65;;
71368;SDS011;59175;53.214;5.728;2023-04-01T10:26:37;3.10;;;0.77;;
71368;SDS011;59175;53.214;5.728;2023-04-01T10:31:37;5.30;;;1.03;;
71368;SDS011;59175;53.214;5.728;2023-04-01T10:36:50;3.85;;;0.90;;
71368;SDS011;59175;53.214;5.728;2023-04-01T10:44:45;3.83;;;0.65;;
71368;SDS011;59175;53.214;5.728;2023-04-01T11:06:23;4.72;;;0.88;;
71368;SDS011;59175;53.214;5.728;2023-04-01T11:44:53;1.95;;;0.30;;
71368;SDS011;59175;53.214;5.728;2023-04-01T11:47:35;1.33;;;0.27;;
71368;SDS011;59175;53.214;5.728;2023-04-01T11:50:14;3.45;;;0.57;;
71368;SDS011;59175;53.214;5.728;2023-04-01T11:52:54;5.63;;;0.30;;
71368;SDS011;59175;53.214;5.728;2023-04-01T11:58:15;0.80;;;0.20;;
71368;SDS011;59175;53.214;5.728;2023-04-01T12:08:27;2.13;;;0.40;;
71368;SDS011;59175;53.214;5.728;2023-04-01T12:11:16;2.80;;;0.45;;
71368;SDS011;59175;53.214;5.728;2023-04-01T12:13:49;0.63;;;0.17;;
71368;SDS011;59175;53.214;5.728;2023-04-01T12:16:25;5.30;;;0.80;;
71368;SDS011;59175;53.214;5.728;2023-04-01T12:26:38;1.48;;;0.30;;
71368;SDS011;59175;53.214;5.728;2023-04-01T12:42:12;2.30;;;0.30;;
71368;SDS011;59175;53.214;5.728;2023-04-01T12:45:00;2.97;;;0.30;;
71368;SDS011;59175;53.214;5.728;2023-04-01T12:55:33;1.88;;;0.32;;
71368;SDS011;59175;53.214;5.728;2023-04-01T12:58:10;1.65;;;0.43;;
71368;SDS011;59175;53.214;5.728;2023-04-01T13:19:11;1.50;;;0.30;;
71368;SDS011;59175;53.214;5.728;2023-04-01T13:44:34;0.70;;;0.10;;
71368;SDS011;59175;53.214;5.728;2023-04-01T14:12:36;5.03;;;1.17;;
71368;SDS011;59175;53.214;5.728;2023-04-01T14:20:02;1.58;;;0.40;;
71368;SDS011;59175;53.214;5.728;2023-04-01T14:28:03;1.10;;;0.38;;
71368;SDS011;59175;53.214;5.728;2023-04-01T14:30:35;2.47;;;0.68;;
71368;SDS011;59175;53.214;5.728;2023-04-01T14:41:10;3.00;;;0.60;;
71368;SDS011;59175;53.214;5.728;2023-04-01T14:46:10;1.25;;;0.30;;
71368;SDS011;59175;53.214;5.728;2023-04-01T14:48:49;4.07;;;0.63;;
71368;SDS011;59175;53.214;5.728;2023-04-01T14:53:44;1.17;;;0.40;;
71368;SDS011;59175;53.214;5.728;2023-04-01T14:56:34;5.18;;;0.55;;
71368;SDS011;59175;53.214;5.728;2023-04-01T14:58:59;3.35;;;0.60;;
71368;SDS011;59175;53.214;5.728;2023-04-01T15:09:06;2.90;;;0.60;;
71368;SDS011;59175;53.214;5.728;2023-04-01T15:19:31;3.45;;;0.57;;
71368;SDS011;59175;53.214;5.728;2023-04-01T15:22:13;4.35;;;1.15;;
71368;SDS011;59175;53.214;5.728;2023-04-01T15:24:48;3.67;;;0.87;;
71368;SDS011;59175;53.214;5.728;2023-04-01T15:27:22;4.63;;;0.47;;
71368;SDS011;59175;53.214;5.728;2023-04-01T15:37:52;3.70;;;0.63;;
71368;SDS011;59175;53.214;5.728;2023-04-01T15:45:31;6.03;;;0.60;;
71368;SDS011;59175;53.214;5.728;2023-04-01T16:18:34;3.22;;;0.77;;
71368;SDS011;59175;53.214;5.728;2023-04-01T16:23:40;5.70;;;0.67;;
71368;SDS011;59175;53.214;5.728;2023-04-01T16:28:34;12.17;;;1.57;;
71368;SDS011;59175;53.214;5.728;2023-04-01T16:31:08;2.33;;;0.50;;
71368;SDS011;59175;53.214;5.728;2023-04-01T16:39:10;2.47;;;0.60;;
71368;SDS011;59175;53.214;5.728;2023-04-01T16:41:37;4.10;;;1.02;;
71368;SDS011;59175;53.214;5.728;2023-04-01T16:44:13;5.72;;;1.08;;
71368;SDS011;59175;53.214;5.728;2023-04-01T16:46:56;3.03;;;0.75;;
71368;SDS011;59175;53.214;5.728;2023-04-01T16:49:42;5.13;;;1.38;;
71368;SDS011;59175;53.214;5.728;2023-04-01T16:54:48;6.27;;;1.37;;
71368;SDS011;59175;53.214;5.728;2023-04-01T16:57:21;3.70;;;1.00;;
71368;SDS011;59175;53.214;5.728;2023-04-01T16:59:55;3.67;;;0.85;;
71368;SDS011;59175;53.214;5.728;2023-04-01T17:02:25;4.63;;;1.77;;
71368;SDS011;59175;53.214;5.728;2023-04-01T17:25:37;3.67;;;0.77;;
71368;SDS011;59175;53.214;5.728;2023-04-01T17:28:13;10.45;;;1.35;;
71368;SDS011;59175;53.214;5.728;2023-04-01T17:35:59;15.40;;;3.10;;
71368;SDS011;59175;53.214;5.728;2023-04-01T17:51:43;4.45;;;1.08;;
71368;SDS011;59175;53.214;5.728;2023-04-01T17:56:58;4.78;;;0.63;;
71368;SDS011;59175;53.214;5.728;2023-04-01T17:59:36;8.10;;;1.33;;
71368;SDS011;59175;53.214;5.728;2023-04-01T18:04:36;2.17;;;0.70;;
71368;SDS011;59175;53.214;5.728;2023-04-01T18:07:06;4.45;;;1.13;;
71368;SDS011;59175;53.214;5.728;2023-04-01T18:15:19;6.80;;;1.30;;
71368;SDS011;59175;53.214;5.728;2023-04-01T18:18:47;6.75;;;1.13;;
71368;SDS011;59175;53.214;5.728;2023-04-01T18:21:02;7.18;;;1.58;;
71368;SDS011;59175;53.214;5.728;2023-04-01T18:26:20;7.53;;;2.20;;
71368;SDS011;59175;53.214;5.728;2023-04-01T18:37:31;2.72;;;0.60;;
71368;SDS011;59175;53.214;5.728;2023-04-01T18:40:03;3.97;;;1.17;;
71368;SDS011;59175;53.214;5.728;2023-04-01T18:42:55;6.83;;;2.60;;
71368;SDS011;59175;53.214;5.728;2023-04-01T18:45:57;7.90;;;1.80;;
71368;SDS011;59175;53.214;5.728;2023-04-01T18:53:48;5.40;;;1.50;;
71368;SDS011;59175;53.214;5.728;2023-04-01T18:56:22;4.87;;;0.70;;
71368;SDS011;59175;53.214;5.728;2023-04-01T18:58:53;3.97;;;1.10;;
71368;SDS011;59175;53.214;5.728;2023-04-01T19:08:47;4.40;;;0.87;;
71368;SDS011;59175;53.214;5.728;2023-04-01T19:13:44;6.13;;;1.38;;
71368;SDS011;59175;53.214;5.728;2023-04-01T19:16:25;6.53;;;1.45;;
71368;SDS011;59175;53.214;5.728;2023-04-01T19:21:39;7.72;;;1.45;;
71368;SDS011;59175;53.214;5.728;2023-04-01T19:26:39;4.50;;;1.65;;
71368;SDS011;59175;53.214;5.728;2023-04-01T19:29:21;5.18;;;1.27;;
71368;SDS011;59175;53.214;5.728;2023-04-01T19:36:50;6.57;;;1.23;;
71368;SDS011;59175;53.214;5.728;2023-04-01T19:39:51;7.00;;;1.23;;
71368;SDS011;59175;53.214;5.728;2023-04-01T19:44:47;4.13;;;0.95;;
71368;SDS011;59175;53.214;5.728;2023-04-01T19:49:44;2.90;;;0.83;;
71368;SDS011;59175;53.214;5.728;2023-04-01T19:52:15;3.53;;;0.98;;
71368;SDS011;59175;53.214;5.728;2023-04-01T19:59:41;5.40;;;1.45;;
71368;SDS011;59175;53.214;5.728;2023-04-01T20:04:44;6.45;;;1.38;;
71368;SDS011;59175;53.214;5.728;2023-04-01T20:07:13;9.73;;;1.60;;
71368;SDS011;59175;53.214;5.728;2023-04-01T20:09:49;6.45;;;1.77;;
71368;SDS011;59175;53.214;5.728;2023-04-01T20:14:48;5.22;;;1.35;;
71368;SDS011;59175;53.214;5.728;2023-04-01T20:22:52;3.00;;;1.05;;
71368;SDS011;59175;53.214;5.728;2023-04-01T20:25:24;4.30;;;1.15;;
71368;SDS011;59175;53.214;5.728;2023-04-01T20:30:27;4.38;;;1.23;;
71368;SDS011;59175;53.214;5.728;2023-04-01T20:49:07;2.28;;;0.65;;
71368;SDS011;59175;53.214;5.728;2023-04-01T20:52:26;2.45;;;0.38;;
71368;SDS011;59175;53.214;5.728;2023-04-01T20:54:32;5.88;;;0.95;;
71368;SDS011;59175;53.214;5.728;2023-04-01T21:02:20;3.28;;;0.77;;
71368;SDS011;59175;53.214;5.728;2023-04-01T21:05:04;4.57;;;0.70;;
71368;SDS011;59175;53.214;5.728;2023-04-01T21:28:22;4.90;;;1.30;;
71368;SDS011;59175;53.214;5.728;2023-04-01T21:30:55;7.35;;;1.33;;
71368;SDS011;59175;53.214;5.728;2023-04-01T21:58:57;4.90;;;0.63;;
71368;SDS011;59175;53.214;5.728;2023-04-01T22:09:05;4.57;;;0.88;;
71368;SDS011;59175;53.214;5.728;2023-04-01T22:21:37;3.75;;;0.70;;
71368;SDS011;59175;53.214;5.728;2023-04-01T22:29:20;8.02;;;1.00;;
71368;SDS011;59175;53.214;5.728;2023-04-01T22:31:54;2.37;;;0.83;;
71368;SDS011;59175;53.214;5.728;2023-04-01T22:34:27;6.57;;;0.68;;
71368;SDS011;59175;53.214;5.728;2023-04-01T22:36:58;3.95;;;1.05;;
71368;SDS011;59175;53.214;5.728;2023-04-01T22:42:24;4.55;;;1.05;;
71368;SDS011;59175;53.214;5.728;2023-04-01T22:49:48;5.87;;;0.90;;
71368;SDS011;59175;53.214;5.728;2023-04-01T22:54:48;2.22;;;0.60;;
71368;SDS011;59175;53.214;5.728;2023-04-01T22:57:15;4.38;;;0.82;;
71368;SDS011;59175;53.214;5.728;2023-04-01T22:59:57;3.35;;;0.57;;
71368;SDS011;59175;53.214;5.728;2023-04-01T23:02:25;6.23;;;0.37;;
71368;SDS011;59175;53.214;5.728;2023-04-01T23:04:56;2.60;;;0.55;;
71368;SDS011;59175;53.214;5.728;2023-04-01T23:10:19;2.95;;;1.08;;
71368;SDS011;59175;53.214;5.728;2023-04-01T23:12:45;8.90;;;0.77;;
71368;SDS011;59175;53.214;5.728;2023-04-01T23:15:14;1.90;;;0.93;;
71368;SDS011;59175;53.214;5.728;2023-04-01T23:25:04;1.03;;;0.27;;
71368;SDS011;59175;53.214;5.728;2023-04-01T23:27:41;4.13;;;0.73;;
71368;SDS011;59175;53.214;5.728;2023-04-01T23:38:12;1.63;;;0.30;;
71368;SDS011;59175;53.214;5.728;2023-04-01T23:40:37;2.00;;;0.67;;
71368;SDS011;59175;53.214;5.728;2023-04-01T23:43:12;3.00;;;0.47;;
71368;SDS011;59175;53.214;5.728;2023-04-01T23:45:37;2.25;;;0.40;;
71368;SDS011;59175;53.214;5.728;2023-04-01T23:48:02;5.27;;;0.63;;
71368;SDS011;59175;53.214;5.728;2023-04-01T23:50:28;2.37;;;0.57;;
71368;SDS011;59175;53.214;5.728;2023-04-01T23:52:56;6.27;;;0.30;;
71368;SDS011;59175;53.214;5.728;2023-04-01T23:55:24;4.32;;;0.38;;
71368;SDS011;59175;53.214;5.728;2023-04-01T23:58:00;1.10;;;0.20;;
